Latest Weather Observations for Coen Airport

IDQ60801

Issued at 12:05 pm EST Monday 21 April 2014 (issued every 30 minutes, with the page automatically refreshed every 10 minutes)

About weather observations | Map of weather stations | Latest weather observations for QLD | Other Formats
Station Details ID: 027073 Name: COEN AIRPORT Lat: -13.76 Lon: 143.12 Height: 159.3 m
Data from the previous 72 hours. | See also: Recent months at Coen Airport
Date/Time
EST
Temp
°C
App
Temp
°C
Dew
Point
Rel
Hum
%
Delta-T
°C
Wind Press
QNH
hPa
Press
MSL
hPa
Rain
since 9 am
mm
Dir
 
Spd
km/h
Gust
km/h
Spd
kts
Gust
kts
21/12:00pm 29.5 30.7 23.2 69 4.3 E 22 35 12 19 1011.8 1010.9 0.0
21/11:30am 29.1 30.5 23.5 72 3.9 E 22 35 12 19 1012.3 - 0.0
21/11:00am 28.8 30.6 23.5 73 3.7 E 20 30 11 16 1012.9 - 0.0
21/10:30am 27.9 29.7 22.6 73 3.6 E 17 30 9 16 1013.1 - 0.0
21/10:00am 27.1 28.7 22.1 74 3.4 E 17 28 9 15 1013.0 - 0.0
21/09:30am 26.4 28.1 21.6 75 3.2 E 15 30 8 16 1013.3 - 0.0
21/09:00am 26.0 27.2 21.4 76 3.1 ESE 17 26 9 14 1013.2 1012.3 0.0
21/08:30am 25.6 27.6 21.5 78 2.7 ESE 13 19 7 10 1012.9 - 0.0
21/08:00am 24.9 27.0 21.0 79 2.6 ESE 11 20 6 11 1012.5 - 0.0
21/07:30am 24.1 25.4 20.2 79 2.5 SE 13 17 7 9 1012.6 - 0.0
21/07:00am 23.9 25.5 20.0 79 2.5 SSE 11 20 6 11 1012.7 - 0.0
21/06:30am 23.5 24.9 19.6 79 2.5 S 11 15 6 8 1012.2 - 0.0
21/06:00am 23.2 25.2 19.1 78 2.6 SSW 7 9 4 5 1011.8 1010.9 0.0
21/05:30am 23.4 24.7 19.3 78 2.6 S 11 15 6 8 1011.6 - 0.0
21/05:00am 23.6 24.2 19.5 78 2.6 S 15 19 8 10 1011.5 - 0.0
21/04:30am 23.5 25.6 19.4 78 2.6 SSE 7 13 4 7 1011.5 - 0.0
21/04:00am 23.5 24.8 19.4 78 2.6 S 11 17 6 9 1011.5 - 0.0
21/03:30am 23.2 24.7 18.9 77 2.7 S 9 15 5 8 1011.4 - 0.0
21/03:00am 23.4 24.2 19.1 77 2.8 SSE 13 17 7 9 1011.5 1010.7 0.0
21/02:30am 23.2 23.9 18.9 77 2.7 S 13 17 7 9 1011.4 - 0.0
21/02:00am 23.2 24.7 18.9 77 2.7 S 9 13 5 7 1011.7 - 0.0
21/01:30am 22.9 24.2 18.4 76 2.8 S 9 11 5 6 1012.0 - 0.0
21/01:00am 23.1 24.0 18.4 75 3.0 SSE 11 15 6 8 1012.2 - 0.0
21/12:30am 23.6 25.1 18.9 75 3.0 S 9 13 5 7 1012.5 - 0.0
21/12:00am 23.7 25.2 19.0 75 3.0 S 9 11 5 6 1012.7 1011.8 0.0
 
Date/Time
EST
Temp
°C
App
Temp
°C
Dew
Point
Rel
Hum
%
Delta-T
°C
Wind Press
QNH
hPa
Press
MSL
hPa
Rain
since 9 am
mm
Dir
 
Spd
km/h
Gust
km/h
Spd
kts
Gust
kts
20/11:30pm 23.4 24.7 18.5 74 3.1 SSE 9 13 5 7 1012.9 - 0.0
20/11:00pm 23.8 24.9 18.9 74 3.1 SSE 11 15 6 8 1013.0 - 0.0
20/10:30pm 23.8 24.8 18.7 73 3.2 SSE 11 15 6 8 1013.0 - 0.0
20/10:00pm 23.9 25.8 18.5 72 3.4 ESE 6 9 3 5 1013.2 - 0.0
20/09:30pm 24.4 25.9 18.8 71 3.6 ESE 9 17 5 9 1013.3 - 0.0
20/09:00pm 24.4 25.8 18.6 70 3.7 ESE 9 13 5 7 1013.3 1012.4 0.0
20/08:30pm 24.4 26.2 18.3 69 3.9 E 6 11 3 6 1013.2 - 0.0
20/08:00pm 24.5 25.2 18.0 67 4.1 E 11 17 6 9 1012.9 - 0.0
20/07:30pm 24.7 25.7 17.7 65 4.4 E 9 19 5 10 1012.6 - 0.0
20/07:00pm 25.1 25.5 17.3 62 4.9 E 11 20 6 11 1012.4 - 0.0
20/06:30pm 25.5 25.4 16.9 59 5.4 E 13 20 7 11 1012.0 - 0.0
20/06:00pm 26.3 26.3 17.1 57 5.8 E 13 24 7 13 1012.0 1011.1 0.0
20/05:30pm 27.1 27.0 17.8 56 5.9 ESE 15 22 8 12 1011.5 - 0.0
20/05:00pm 27.1 26.0 17.8 56 5.9 ESE 20 32 11 17 1011.4 - 0.0
20/04:30pm 28.3 28.2 18.7 56 6.2 ESE 17 26 9 14 1011.4 - 0.0
20/04:00pm 28.2 26.8 18.0 54 6.5 E 22 30 12 16 1011.1 - 0.0
20/03:30pm 28.5 27.5 18.0 53 6.7 ESE 20 30 11 16 1011.0 - 0.0
20/03:00pm 29.1 28.5 18.8 53 6.7 ESE 20 28 11 15 1011.0 1009.9 0.0
20/02:30pm 29.2 28.7 19.2 54 6.5 E 20 32 11 17 1011.1 - 0.0
20/02:00pm 29.4 29.2 19.7 56 6.4 ESE 20 35 11 19 1011.4 - 0.0
20/01:30pm 28.7 27.9 19.3 56 6.1 ESE 22 39 12 21 1011.6 - 0.0
20/01:00pm 29.3 29.5 20.2 58 6.0 E 19 28 10 15 1011.8 - 0.0
20/12:30pm 29.8 30.5 21.2 60 5.8 E 19 26 10 14 1012.0 - 0.0
20/12:00pm 27.9 27.7 19.4 60 5.5 ESE 19 26 10 14 1012.6 1011.7 0.0
20/11:30am 28.1 28.3 19.3 58 5.7 E 17 24 9 13 1012.9 - 0.0
20/11:00am 28.9 29.3 20.6 61 5.5 E 19 32 10 17 1013.3 - 0.0
20/10:30am 29.0 29.4 20.7 61 5.5 E 19 28 10 15 1013.3 - 0.0
20/10:00am 28.6 29.5 20.9 63 5.1 ESE 17 28 9 15 1013.3 - 0.0
20/09:30am 27.9 28.6 20.5 64 4.9 E 17 30 9 16 1013.2 - 0.0
20/09:00am 27.5 28.7 20.6 66 4.6 E 15 20 8 11 1012.9 1012.0 0.0
20/08:30am 27.1 28.9 21.2 70 3.9 ESE 13 20 7 11 1012.6 - 0.0
20/08:00am 26.3 28.8 21.1 73 3.5 ESE 9 13 5 7 1012.2 - 0.0
20/07:30am 24.5 27.0 19.8 75 3.1 SE 6 19 3 10 1012.0 - 0.0
20/07:00am 23.8 25.7 18.9 74 3.1 SSE 7 11 4 6 1011.8 - 0.0
20/06:30am 23.1 25.2 18.0 73 3.2 ESE 4 9 2 5 1011.7 - 0.0
20/06:00am 23.6 24.9 18.5 73 3.2 ESE 9 20 5 11 1011.6 1010.7 0.0
20/05:30am 23.6 25.5 18.5 73 3.2 E 6 15 3 8 1011.4 - 0.0
20/05:00am 23.9 25.0 18.8 73 3.3 ESE 11 20 6 11 1011.3 - 0.0
20/04:30am 23.8 25.2 18.7 73 3.2 E 9 15 5 8 1011.4 - 0.0
20/04:00am 23.2 24.3 18.1 73 3.2 SSE 9 17 5 9 1011.6 - 0.0
20/03:30am 23.6 24.8 18.3 72 3.4 SSE 9 13 5 7 1011.5 - 0.0
20/03:00am 23.7 25.0 18.4 72 3.4 SE 9 13 5 7 1011.7 1010.8 0.0
20/02:30am 23.8 25.4 18.2 71 3.5 ESE 7 13 4 7 1011.7 - 0.0
20/02:00am 23.6 24.7 18.0 71 3.5 SE 9 15 5 8 1012.0 - 0.0
20/01:30am 23.8 24.1 18.0 70 3.7 SE 13 26 7 14 1012.2 - 0.0
20/01:00am 23.9 26.3 17.9 69 3.8 ESE 2 6 1 3 1012.5 - 0.0
20/12:30am 23.8 24.3 17.5 68 3.9 ESE 11 13 6 7 1012.7 - 0.0
20/12:00am 24.3 24.6 17.8 67 4.1 ESE 13 20 7 11 1012.9 1011.9 0.0
 
Date/Time
EST
Temp
°C
App
Temp
°C
Dew
Point
Rel
Hum
%
Delta-T
°C
Wind Press
QNH
hPa
Press
MSL
hPa
Rain
since 9 am
mm
Dir
 
Spd
km/h
Gust
km/h
Spd
kts
Gust
kts
19/11:30pm 24.5 24.3 17.5 65 4.4 ESE 15 28 8 15 1013.2 - 0.0
19/11:00pm 24.7 24.4 17.4 64 4.6 ESE 15 24 8 13 1013.3 - 0.0
19/10:30pm 24.5 25.3 18.2 68 4.0 ESE 11 17 6 9 1013.4 - 0.0
19/10:00pm 25.0 26.2 19.1 70 3.8 E 11 24 6 13 1013.4 - 0.0
19/09:30pm 25.0 25.4 19.1 70 3.8 E 15 28 8 15 1013.3 - 0.0
19/09:00pm 24.2 25.4 18.2 69 3.8 E 9 15 5 8 1013.2 1012.4 0.0
19/08:30pm 24.4 25.5 18.1 68 4.0 ESE 9 15 5 8 1013.0 - 0.0
19/08:00pm 24.5 25.6 18.0 67 4.1 E 9 22 5 12 1012.7 - 0.0
19/07:30pm 24.6 26.0 17.8 66 4.3 E 7 13 4 7 1012.3 - 0.0
19/07:00pm 25.0 26.4 17.7 64 4.6 E 7 11 4 6 1012.1 - 0.0
19/06:30pm 25.3 26.1 17.2 61 5.1 E 9 15 5 8 1011.8 - 0.0
19/06:00pm 26.0 27.1 17.1 58 5.6 E 7 11 4 6 1011.9 1011.0 0.0
19/05:30pm 27.1 27.9 18.1 58 5.7 ESE 11 22 6 12 1011.8 - 0.0
19/05:00pm 27.3 25.7 17.5 55 6.2 E 22 35 12 19 1011.5 - 0.0
19/04:30pm 28.0 26.5 17.8 54 6.5 ESE 22 32 12 17 1011.3 - 0.0
19/04:00pm 29.0 28.3 18.7 53 6.7 E 20 30 11 16 1011.1 - 0.0
19/03:30pm 28.8 27.6 18.3 53 6.8 ESE 22 41 12 22 1011.0 - 0.0
19/03:00pm 29.3 28.1 18.4 51 7.0 E 22 35 12 19 1011.4 1010.4 0.0
19/02:30pm 29.7 28.8 19.1 53 6.9 E 22 35 12 19 1011.4 - 0.0
19/02:00pm 30.0 29.4 19.7 54 6.8 E 22 33 12 18 1011.9 - 0.0
19/01:30pm 29.4 28.5 19.1 54 6.7 E 22 35 12 19 1012.2 - 0.0
19/01:00pm 29.1 28.1 18.8 53 6.7 E 22 35 12 19 1012.5 - 0.0
19/12:30pm 29.7 29.6 20.0 56 6.4 E 20 35 11 19 1012.7 - 0.0
19/12:00pm 29.5 29.1 20.1 57 6.2 E 22 37 12 20 1013.3 1012.3 0.0
19/11:30am 29.6 29.6 21.0 60 5.8 E 22 41 12 22 1013.9 - 0.0
19/11:00am 29.6 30.3 21.5 61 5.5 E 20 35 11 19 1014.3 - 0.0
19/10:30am 28.7 29.2 21.2 64 5.0 E 20 32 11 17 1014.3 - 0.0
19/10:00am 29.1 30.4 22.3 66 4.6 E 19 33 10 18 1014.3 - 0.0
19/09:30am 28.5 30.2 22.3 69 4.2 E 17 24 9 13 1014.1 - 0.0
19/09:00am 27.4 29.6 21.9 72 3.7 E 13 17 7 9 1013.9 1013.0 0.0
19/08:30am 26.6 28.9 21.4 73 3.5 E 11 19 6 10 1013.6 - 0.0
19/08:00am 26.1 27.9 21.1 74 3.3 E 13 22 7 12 1013.5 - 0.0
19/07:30am 24.9 26.9 19.9 74 3.3 ESE 9 15 5 8 1013.1 - 0.0
19/07:00am 24.6 26.5 19.7 74 3.2 ESE 9 15 5 8 1012.7 - 0.0
19/06:30am 24.7 24.6 20.0 75 3.1 E 20 30 11 16 1012.4 - 0.0
19/06:00am 24.5 25.7 19.8 75 3.1 ESE 13 22 7 12 1011.8 1011.0 0.0
19/05:30am 24.3 25.8 19.8 76 2.9 ESE 11 19 6 10 1011.9 - 0.0
19/05:00am 24.4 26.4 19.9 76 2.9 ESE 9 15 5 8 1012.0 - 0.0
19/04:30am 24.6 26.7 20.1 76 2.9 ESE 9 17 5 9 1012.1 - 0.0
19/04:00am 24.1 25.9 19.6 76 2.9 SSE 9 15 5 8 1012.2 - 0.0
19/03:30am 24.3 25.5 19.8 76 2.9 SE 13 20 7 11 1012.6 - 0.0
19/03:00am 24.1 25.3 19.8 77 2.8 SE 13 20 7 11 1012.6 1011.7 0.0
19/02:30am 23.9 25.1 19.8 78 2.7 SE 13 20 7 11 1012.7 - 0.0
19/02:00am 23.5 24.8 19.4 78 2.6 SE 11 19 6 10 1012.9 - 0.0
19/01:30am 23.3 24.2 19.2 78 2.6 SSE 13 15 7 8 1013.2 - 0.0
19/01:00am 23.1 24.5 18.6 76 2.9 SSE 9 13 5 7 1013.6 - 0.0
19/12:30am 23.4 25.2 18.7 75 3.0 SE 7 17 4 9 1014.1 - 0.0
19/12:00am 23.9 25.2 19.2 75 3.0 SE 11 15 6 8 1014.2 1013.3 0.0
 
Date/Time
EST
Temp
°C
App
Temp
°C
Dew
Point
Rel
Hum
%
Delta-T
°C
Wind Press
QNH
hPa
Press
MSL
hPa
Rain
since 9 am
mm
Dir
 
Spd
km/h
Gust
km/h
Spd
kts
Gust
kts
18/11:30pm 23.7 25.2 18.8 74 3.1 SE 9 11 5 6 1014.6 - 0.0
18/11:00pm 24.5 25.4 19.3 73 3.4 SE 13 20 7 11 1014.8 - 0.0
18/10:30pm 24.2 24.9 18.8 72 3.4 SSE 13 17 7 9 1014.8 - 0.0
18/10:00pm 24.7 25.0 19.5 73 3.4 SE 17 24 9 13 1014.9 - 0.0
18/09:30pm 24.0 25.5 18.9 73 3.3 SSE 9 13 5 7 1014.9 - 0.0
18/09:00pm 24.2 26.2 18.8 72 3.4 SE 6 11 3 6 1014.8 1013.9 0.0
18/08:30pm 23.4 26.1 17.8 71 3.5 CALM 0 0 0 0 1014.4 - 0.0
18/08:00pm 24.6 27.2 18.3 68 4.0 E 2 7 1 4 1013.8 - 0.0
18/07:30pm 25.2 26.9 18.6 67 4.2 E 7 11 4 6 1013.2 - 0.0
18/07:00pm 25.1 26.7 18.3 66 4.3 E 7 11 4 6 1012.9 - 0.0
18/06:30pm 25.8 27.7 18.5 64 4.7 E 6 11 3 6 1012.8 - 0.0
18/06:00pm 26.3 28.1 18.7 63 4.9 E 7 13 4 7 1012.5 1011.7 0.0
18/05:30pm 27.0 27.6 18.6 60 5.4 ESE 13 22 7 12 1012.2 - 0.0
18/05:00pm 27.5 26.6 18.2 57 6.0 ESE 20 33 11 18 1012.0 - 0.0
18/04:30pm 28.2 28.0 18.6 56 6.2 ESE 17 28 9 15 1011.9 - 0.0
18/04:00pm 28.8 28.3 19.1 55 6.3 E 20 32 11 17 1011.5 - 0.0
18/03:30pm 29.3 29.5 19.3 55 6.5 E 17 32 9 17 1011.6 - 0.0
18/03:00pm 29.4 29.4 19.7 56 6.4 E 19 32 10 17 1011.7 1010.7 0.0
18/02:30pm 29.6 29.6 20.2 57 6.2 E 20 37 11 20 1011.9 - 0.0
18/02:00pm 30.0 29.9 20.8 57 6.2 ESE 22 39 12 21 1012.1 - 0.0
18/01:30pm 30.1 31.3 21.5 60 5.8 ESE 17 32 9 17 1012.4 - 0.0
18/01:00pm 29.6 31.1 21.3 61 5.6 ESE 15 26 8 14 1012.6 - 0.0
18/12:30pm 30.6 32.4 22.5 62 5.5 ESE 17 30 9 16 1012.6 - 0.0

Other Formats:

Comma delimited format used in spreadsheet applications
http://www.bom.gov.au/fwo/IDQ60801/IDQ60801.94183.axf

JavaScript Object Notation format (JSON) in row-major order
http://www.bom.gov.au/fwo/IDQ60801/IDQ60801.94183.json